»·PEaware :: QXE717 KPDX-KOTH

QXE717 :: KPDX-KOTH

FLIGHT INFORMATION

Flight Status: Arrived
Operator:
Horizon Air
More flights by this operator :: More flights under this callsign
Pilot: Ty S. (2873)
Aircraft: DEHAVILLAND DASH 8 400
(DH8D)
More flights by this aircraft type
Origin: KPDX Portland Intl
United States
Destination: KOTH North Bend Mun
United States
More flights between these airports :: More routes between these airports
Route: +PTLD1 UBG V287 OTH
File this flight plan on PilotEdge
Remarks: PBN / D1 DOF / 181006 REG / N847SB OPR / QXE PER / C RMK / TCAS SIMBRIEF
Altitude:
(Current/Filed)
16,000ft
Speed:
(Current/Filed)
317kts
Departed: 05-Oct-18 06:48 PM
Arrived: 05-Oct-18 07:28 PM
Distance/Time
Traveled:
148nm/0:39
Distance/Time
To Go:
Arrived

Flight Plot

Page will automatically refresh every two minutes.

Flight plan parsing failed; only flown route is shown


Map Options




Map Legend


Flown Route
Filed Route
Departure Airport
Arrival Airport
Navaid (VOR, NDB)
Fix

Horizontal Profiles

Position Reports

Time Latitude Longitude Heading Altitude Ground
Speed
05-Oct-18 18:29 45.586457 -122.592802 56 36ft 0kts
05-Oct-18 18:30 45.586457 -122.592802 56 36ft 0kts
05-Oct-18 18:31 45.586457 -122.592802 56 36ft 0kts
05-Oct-18 18:32 45.586457 -122.592802 56 36ft 0kts
05-Oct-18 18:33 45.586457 -122.592802 56 36ft 0kts
05-Oct-18 18:34 45.586457 -122.592802 56 36ft 0kts
05-Oct-18 18:35 45.586457 -122.592802 56 36ft 0kts
05-Oct-18 18:36 45.586457 -122.592802 56 36ft 0kts
05-Oct-18 18:37 45.586457 -122.592802 56 36ft 0kts
05-Oct-18 18:38 45.586457 -122.592802 56 36ft 0kts
05-Oct-18 18:39 45.586457 -122.592802 56 36ft 0kts
05-Oct-18 18:40 45.586457 -122.592802 56 36ft 0kts
05-Oct-18 18:41 45.586457 -122.592802 56 36ft 0kts
05-Oct-18 18:42 45.586457 -122.592802 56 36ft 0kts
05-Oct-18 18:43 45.586408 -122.592910 56 36ft 2kts
05-Oct-18 18:44 45.586030 -122.593302 319 36ft 2kts
05-Oct-18 18:45 45.585976 -122.593224 322 36ft 0kts
05-Oct-18 18:46 45.585980 -122.593229 322 36ft 0kts
05-Oct-18 18:47 45.587631 -122.596786 298 36ft 13kts
05-Oct-18 18:48 45.589652 -122.601921 297 36ft 15kts
05-Oct-18 18:49 45.589781 -122.604133 225 36ft 0kts
05-Oct-18 18:50 45.583663 -122.591936 116 52ft 146kts
05-Oct-18 18:51 45.566878 -122.542841 115 1787ft 201kts
05-Oct-18 18:52 45.542119 -122.469518 115 4535ft 208kts
05-Oct-18 18:53 45.500940 -122.484817 239 7352ft 225kts
05-Oct-18 18:54 45.476606 -122.564935 243 10269ft 220kts
05-Oct-18 18:55 45.452750 -122.645053 246 12923ft 224kts
05-Oct-18 18:56 45.428126 -122.727991 247 15378ft 234kts
05-Oct-18 18:57 45.400182 -122.821753 247 15989ft 285kts
05-Oct-18 18:58 45.367272 -122.931552 247 15972ft 316kts
05-Oct-18 18:59 45.298743 -123.010873 209 15969ft 336kts
05-Oct-18 19:00 45.213074 -123.067142 207 15966ft 342kts
05-Oct-18 19:01 45.126247 -123.122172 207 15966ft 344kts
05-Oct-18 19:02 45.039388 -123.176847 209 15964ft 342kts
05-Oct-18 19:03 44.952730 -123.231299 210 15965ft 342kts
05-Oct-18 19:04 44.870996 -123.282587 210 15981ft 343kts
05-Oct-18 19:05 44.786365 -123.335432 210 16010ft 343kts
05-Oct-18 19:06 44.699243 -123.389656 210 16017ft 344kts
05-Oct-18 19:07 44.612130 -123.443694 210 16017ft 344kts
05-Oct-18 19:08 44.525628 -123.497178 210 16017ft 344kts
05-Oct-18 19:09 44.434097 -123.534737 197 15992ft 353kts
05-Oct-18 19:10 44.341825 -123.575171 204 15488ft 347kts
05-Oct-18 19:11 44.253102 -123.610427 203 13720ft 318kts
05-Oct-18 19:12 44.170791 -123.643008 202 11973ft 300kts
05-Oct-18 19:13 44.094117 -123.673401 199 10302ft 284kts
05-Oct-18 19:14 44.021770 -123.701749 199 10018ft 263kts
05-Oct-18 19:15 43.952043 -123.729127 200 10021ft 261kts
05-Oct-18 19:16 43.884805 -123.755493 200 10024ft 265kts
05-Oct-18 19:17 43.813657 -123.783301 200 10030ft 268kts
05-Oct-18 19:18 43.741659 -123.811366 200 10054ft 270kts
05-Oct-18 19:19 43.669703 -123.839427 200 9370ft 266kts
05-Oct-18 19:20 43.600622 -123.866220 199 7860ft 251kts
05-Oct-18 19:21 43.534950 -123.891571 199 6351ft 242kts
05-Oct-18 19:22 43.473984 -123.915052 199 5681ft 201kts
05-Oct-18 19:23 43.427356 -123.933002 200 5710ft 165kts
05-Oct-18 19:24 43.412792 -123.983648 264 4728ft 155kts
05-Oct-18 19:25 43.412827 -124.043848 267 3707ft 159kts
05-Oct-18 19:26 43.413995 -124.104644 268 2520ft 158kts
05-Oct-18 19:27 43.415394 -124.163464 269 1865ft 155kts
05-Oct-18 19:28 43.422661 -124.211978 281 842ft 115kts
05-Oct-18 19:29 43.419228 -124.249571 241 24ft 72kts
05-Oct-18 19:30 43.414452 -124.260228 169 24ft 11kts
05-Oct-18 19:31 43.415365 -124.255947 61 24ft 19kts
05-Oct-18 19:32 43.417840 -124.249901 60 24ft 16kts
05-Oct-18 19:33 43.418309 -124.246719 215 24ft 6kts
05-Oct-18 19:34 43.417780 -124.247091 157 24ft 0kts

Navigation Log

Ident Type
Flight plan parsing failed, navigation log unavailable